sensor_id;sensor_type;location;lat;lon;timestamp;P1;durP1;ratioP1;P2;durP2;ratioP2
11086;SDS011;5597;47.588;9.642;2023-04-16T00:00:55;2.43;;;2.23;;
11086;SDS011;5597;47.588;9.642;2023-04-16T00:03:21;2.53;;;2.33;;
11086;SDS011;5597;47.588;9.642;2023-04-16T00:05:47;2.83;;;2.40;;
11086;SDS011;5597;47.588;9.642;2023-04-16T00:08:13;2.00;;;1.90;;
11086;SDS011;5597;47.588;9.642;2023-04-16T00:10:39;2.10;;;1.77;;
11086;SDS011;5597;47.588;9.642;2023-04-16T00:13:04;1.93;;;1.73;;
11086;SDS011;5597;47.588;9.642;2023-04-16T00:15:30;3.10;;;2.77;;
11086;SDS011;5597;47.588;9.642;2023-04-16T00:17:55;2.70;;;2.50;;
11086;SDS011;5597;47.588;9.642;2023-04-16T00:20:21;3.47;;;2.80;;
11086;SDS011;5597;47.588;9.642;2023-04-16T00:22:46;2.47;;;2.13;;
11086;SDS011;5597;47.588;9.642;2023-04-16T00:25:12;2.57;;;2.37;;
11086;SDS011;5597;47.588;9.642;2023-04-16T00:27:38;3.00;;;2.73;;
11086;SDS011;5597;47.588;9.642;2023-04-16T00:30:04;2.93;;;2.53;;
11086;SDS011;5597;47.588;9.642;2023-04-16T00:32:30;2.73;;;2.47;;
11086;SDS011;5597;47.588;9.642;2023-04-16T00:34:56;2.40;;;2.20;;
11086;SDS011;5597;47.588;9.642;2023-04-16T00:37:21;2.37;;;2.13;;
11086;SDS011;5597;47.588;9.642;2023-04-16T00:39:47;2.17;;;1.97;;
11086;SDS011;5597;47.588;9.642;2023-04-16T00:42:12;2.10;;;1.90;;
11086;SDS011;5597;47.588;9.642;2023-04-16T00:44:38;1.97;;;1.53;;
11086;SDS011;5597;47.588;9.642;2023-04-16T00:47:04;1.50;;;1.17;;
11086;SDS011;5597;47.588;9.642;2023-04-16T00:49:31;1.20;;;1.00;;
11086;SDS011;5597;47.588;9.642;2023-04-16T00:51:57;1.10;;;1.00;;
11086;SDS011;5597;47.588;9.642;2023-04-16T00:54:23;1.17;;;0.87;;
11086;SDS011;5597;47.588;9.642;2023-04-16T00:56:49;0.83;;;0.83;;
11086;SDS011;5597;47.588;9.642;2023-04-16T00:59:15;1.10;;;1.00;;
11086;SDS011;5597;47.588;9.642;2023-04-16T01:01:41;2.60;;;1.07;;
11086;SDS011;5597;47.588;9.642;2023-04-16T01:04:07;1.00;;;0.90;;
11086;SDS011;5597;47.588;9.642;2023-04-16T01:06:32;0.83;;;0.60;;
11086;SDS011;5597;47.588;9.642;2023-04-16T01:08:58;1.00;;;0.90;;
11086;SDS011;5597;47.588;9.642;2023-04-16T01:11:24;0.97;;;0.87;;
11086;SDS011;5597;47.588;9.642;2023-04-16T01:13:50;1.10;;;1.00;;
11086;SDS011;5597;47.588;9.642;2023-04-16T01:16:16;1.00;;;0.90;;
11086;SDS011;5597;47.588;9.642;2023-04-16T01:18:41;1.20;;;1.10;;
11086;SDS011;5597;47.588;9.642;2023-04-16T01:21:07;1.00;;;0.90;;
11086;SDS011;5597;47.588;9.642;2023-04-16T01:23:32;1.30;;;1.20;;
11086;SDS011;5597;47.588;9.642;2023-04-16T01:25:58;1.20;;;1.07;;
11086;SDS011;5597;47.588;9.642;2023-04-16T01:28:24;1.10;;;1.00;;
11086;SDS011;5597;47.588;9.642;2023-04-16T01:30:49;1.20;;;1.10;;
11086;SDS011;5597;47.588;9.642;2023-04-16T01:33:15;0.90;;;0.90;;
11086;SDS011;5597;47.588;9.642;2023-04-16T01:35:42;1.60;;;1.07;;
11086;SDS011;5597;47.588;9.642;2023-04-16T01:38:08;1.20;;;1.10;;
11086;SDS011;5597;47.588;9.642;2023-04-16T01:40:34;1.30;;;1.20;;
11086;SDS011;5597;47.588;9.642;2023-04-16T01:43:01;2.13;;;1.30;;
11086;SDS011;5597;47.588;9.642;2023-04-16T01:45:26;1.30;;;1.20;;
11086;SDS011;5597;47.588;9.642;2023-04-16T01:47:52;1.40;;;1.30;;
11086;SDS011;5597;47.588;9.642;2023-04-16T01:50:18;1.90;;;1.80;;
11086;SDS011;5597;47.588;9.642;2023-04-16T01:52:45;1.90;;;1.80;;
11086;SDS011;5597;47.588;9.642;2023-04-16T01:55:10;1.93;;;1.60;;
11086;SDS011;5597;47.588;9.642;2023-04-16T01:57:36;1.93;;;1.67;;
11086;SDS011;5597;47.588;9.642;2023-04-16T02:00:02;1.77;;;1.67;;
11086;SDS011;5597;47.588;9.642;2023-04-16T02:02:28;1.67;;;1.57;;
11086;SDS011;5597;47.588;9.642;2023-04-16T02:04:57;2.00;;;1.80;;
11086;SDS011;5597;47.588;9.642;2023-04-16T02:07:23;1.97;;;1.80;;
11086;SDS011;5597;47.588;9.642;2023-04-16T02:09:49;1.90;;;1.80;;
11086;SDS011;5597;47.588;9.642;2023-04-16T02:12:15;1.77;;;1.67;;
11086;SDS011;5597;47.588;9.642;2023-04-16T02:14:41;1.80;;;1.70;;
11086;SDS011;5597;47.588;9.642;2023-04-16T02:17:07;1.50;;;1.40;;
11086;SDS011;5597;47.588;9.642;2023-04-16T02:19:32;1.87;;;1.67;;
11086;SDS011;5597;47.588;9.642;2023-04-16T02:21:58;1.57;;;1.47;;
11086;SDS011;5597;47.588;9.642;2023-04-16T02:24:25;1.60;;;1.43;;
11086;SDS011;5597;47.588;9.642;2023-04-16T02:26:51;1.50;;;1.40;;
11086;SDS011;5597;47.588;9.642;2023-04-16T02:29:17;2.80;;;2.30;;
11086;SDS011;5597;47.588;9.642;2023-04-16T02:31:43;2.13;;;1.97;;
11086;SDS011;5597;47.588;9.642;2023-04-16T02:34:09;2.53;;;2.33;;
11086;SDS011;5597;47.588;9.642;2023-04-16T02:36:35;2.43;;;2.23;;
11086;SDS011;5597;47.588;9.642;2023-04-16T02:39:00;2.10;;;1.90;;
11086;SDS011;5597;47.588;9.642;2023-04-16T02:41:26;2.20;;;2.00;;
11086;SDS011;5597;47.588;9.642;2023-04-16T02:43:51;2.13;;;1.93;;
11086;SDS011;5597;47.588;9.642;2023-04-16T02:46:17;1.90;;;1.80;;
11086;SDS011;5597;47.588;9.642;2023-04-16T02:48:42;2.50;;;2.20;;
11086;SDS011;5597;47.588;9.642;2023-04-16T02:51:08;1.87;;;1.77;;
11086;SDS011;5597;47.588;9.642;2023-04-16T02:53:34;1.90;;;1.80;;
11086;SDS011;5597;47.588;9.642;2023-04-16T02:55:59;2.20;;;2.00;;
11086;SDS011;5597;47.588;9.642;2023-04-16T02:58:25;2.37;;;2.17;;
11086;SDS011;5597;47.588;9.642;2023-04-16T03:00:51;2.20;;;2.00;;
11086;SDS011;5597;47.588;9.642;2023-04-16T03:03:18;2.60;;;2.40;;
11086;SDS011;5597;47.588;9.642;2023-04-16T03:05:44;2.30;;;2.10;;
11086;SDS011;5597;47.588;9.642;2023-04-16T03:08:10;2.30;;;1.90;;
11086;SDS011;5597;47.588;9.642;2023-04-16T03:10:35;2.57;;;2.00;;
11086;SDS011;5597;47.588;9.642;2023-04-16T03:13:01;1.70;;;1.60;;
11086;SDS011;5597;47.588;9.642;2023-04-16T03:15:27;1.60;;;1.50;;
11086;SDS011;5597;47.588;9.642;2023-04-16T03:17:53;1.60;;;1.40;;
11086;SDS011;5597;47.588;9.642;2023-04-16T03:20:19;2.23;;;1.73;;
11086;SDS011;5597;47.588;9.642;2023-04-16T03:22:45;1.17;;;1.07;;
11086;SDS011;5597;47.588;9.642;2023-04-16T03:25:11;1.27;;;1.17;;
11086;SDS011;5597;47.588;9.642;2023-04-16T03:27:37;1.20;;;1.10;;
11086;SDS011;5597;47.588;9.642;2023-04-16T03:30:07;1.40;;;1.30;;
11086;SDS011;5597;47.588;9.642;2023-04-16T03:32:34;1.10;;;1.00;;
11086;SDS011;5597;47.588;9.642;2023-04-16T03:35:01;1.20;;;1.10;;
11086;SDS011;5597;47.588;9.642;2023-04-16T03:37:27;1.20;;;1.10;;
11086;SDS011;5597;47.588;9.642;2023-04-16T03:39:53;1.23;;;1.13;;
11086;SDS011;5597;47.588;9.642;2023-04-16T03:42:18;1.10;;;1.00;;
11086;SDS011;5597;47.588;9.642;2023-04-16T03:44:44;1.40;;;1.30;;
11086;SDS011;5597;47.588;9.642;2023-04-16T03:47:09;1.83;;;1.50;;
11086;SDS011;5597;47.588;9.642;2023-04-16T03:49:35;1.87;;;1.50;;
11086;SDS011;5597;47.588;9.642;2023-04-16T03:52:00;1.50;;;1.40;;
11086;SDS011;5597;47.588;9.642;2023-04-16T03:54:26;1.80;;;1.10;;
11086;SDS011;5597;47.588;9.642;2023-04-16T03:56:52;1.00;;;1.00;;
11086;SDS011;5597;47.588;9.642;2023-04-16T03:59:17;1.20;;;1.10;;
11086;SDS011;5597;47.588;9.642;2023-04-16T04:01:43;1.20;;;1.10;;
11086;SDS011;5597;47.588;9.642;2023-04-16T04:04:09;1.00;;;0.93;;
11086;SDS011;5597;47.588;9.642;2023-04-16T04:06:34;0.77;;;0.77;;
11086;SDS011;5597;47.588;9.642;2023-04-16T04:09:00;0.80;;;0.80;;
11086;SDS011;5597;47.588;9.642;2023-04-16T04:11:25;0.70;;;0.70;;
11086;SDS011;5597;47.588;9.642;2023-04-16T04:13:51;0.90;;;0.80;;
11086;SDS011;5597;47.588;9.642;2023-04-16T04:16:17;0.77;;;0.77;;
11086;SDS011;5597;47.588;9.642;2023-04-16T04:18:42;0.80;;;0.73;;
11086;SDS011;5597;47.588;9.642;2023-04-16T04:21:08;0.90;;;0.90;;
11086;SDS011;5597;47.588;9.642;2023-04-16T04:23:34;0.70;;;0.70;;
11086;SDS011;5597;47.588;9.642;2023-04-16T04:26:00;0.77;;;0.77;;
11086;SDS011;5597;47.588;9.642;2023-04-16T04:28:31;0.80;;;0.80;;
11086;SDS011;5597;47.588;9.642;2023-04-16T04:30:58;0.80;;;0.80;;
11086;SDS011;5597;47.588;9.642;2023-04-16T04:33:24;1.00;;;0.90;;
11086;SDS011;5597;47.588;9.642;2023-04-16T04:35:50;0.93;;;0.70;;
11086;SDS011;5597;47.588;9.642;2023-04-16T04:38:16;0.60;;;0.60;;
11086;SDS011;5597;47.588;9.642;2023-04-16T04:40:46;0.83;;;0.73;;
11086;SDS011;5597;47.588;9.642;2023-04-16T04:43:12;0.50;;;0.50;;
11086;SDS011;5597;47.588;9.642;2023-04-16T04:45:38;0.57;;;0.57;;
11086;SDS011;5597;47.588;9.642;2023-04-16T04:48:04;0.43;;;0.43;;
11086;SDS011;5597;47.588;9.642;2023-04-16T04:50:30;0.53;;;0.53;;
11086;SDS011;5597;47.588;9.642;2023-04-16T04:52:55;0.70;;;0.60;;
11086;SDS011;5597;47.588;9.642;2023-04-16T04:55:21;0.80;;;0.60;;
11086;SDS011;5597;47.588;9.642;2023-04-16T04:57:47;0.67;;;0.67;;
11086;SDS011;5597;47.588;9.642;2023-04-16T05:00:13;1.07;;;0.80;;
11086;SDS011;5597;47.588;9.642;2023-04-16T05:02:39;1.00;;;0.67;;
11086;SDS011;5597;47.588;9.642;2023-04-16T05:05:04;0.70;;;0.60;;
11086;SDS011;5597;47.588;9.642;2023-04-16T05:07:30;0.50;;;0.50;;
11086;SDS011;5597;47.588;9.642;2023-04-16T05:09:56;0.70;;;0.60;;
11086;SDS011;5597;47.588;9.642;2023-04-16T05:12:22;1.33;;;0.57;;
11086;SDS011;5597;47.588;9.642;2023-04-16T05:14:47;0.90;;;0.60;;
11086;SDS011;5597;47.588;9.642;2023-04-16T05:17:13;1.00;;;0.60;;
11086;SDS011;5597;47.588;9.642;2023-04-16T05:19:38;8.53;;;7.63;;
11086;SDS011;5597;47.588;9.642;2023-04-16T05:22:04;2.90;;;2.20;;
11086;SDS011;5597;47.588;9.642;2023-04-16T05:24:30;1.37;;;1.27;;
11086;SDS011;5597;47.588;9.642;2023-04-16T05:26:55;0.80;;;0.70;;
11086;SDS011;5597;47.588;9.642;2023-04-16T05:29:21;0.70;;;0.60;;
11086;SDS011;5597;47.588;9.642;2023-04-16T05:31:47;0.70;;;0.50;;
11086;SDS011;5597;47.588;9.642;2023-04-16T05:34:13;0.60;;;0.60;;
11086;SDS011;5597;47.588;9.642;2023-04-16T05:36:39;0.70;;;0.70;;
11086;SDS011;5597;47.588;9.642;2023-04-16T05:39:04;0.90;;;0.80;;
11086;SDS011;5597;47.588;9.642;2023-04-16T05:41:31;0.73;;;0.73;;
11086;SDS011;5597;47.588;9.642;2023-04-16T05:43:57;0.70;;;0.60;;
11086;SDS011;5597;47.588;9.642;2023-04-16T05:46:23;0.70;;;0.70;;
11086;SDS011;5597;47.588;9.642;2023-04-16T05:48:48;0.60;;;0.60;;
11086;SDS011;5597;47.588;9.642;2023-04-16T05:51:14;0.60;;;0.60;;
11086;SDS011;5597;47.588;9.642;2023-04-16T05:53:39;0.93;;;0.80;;
11086;SDS011;5597;47.588;9.642;2023-04-16T05:56:05;0.70;;;0.70;;
11086;SDS011;5597;47.588;9.642;2023-04-16T05:58:31;1.13;;;0.80;;
11086;SDS011;5597;47.588;9.642;2023-04-16T06:00:57;1.00;;;0.60;;
11086;SDS011;5597;47.588;9.642;2023-04-16T06:03:23;0.70;;;0.67;;
11086;SDS011;5597;47.588;9.642;2023-04-16T06:05:49;0.70;;;0.70;;
11086;SDS011;5597;47.588;9.642;2023-04-16T06:08:14;0.60;;;0.60;;
11086;SDS011;5597;47.588;9.642;2023-04-16T06:10:40;0.70;;;0.70;;
11086;SDS011;5597;47.588;9.642;2023-04-16T06:13:05;0.60;;;0.60;;
11086;SDS011;5597;47.588;9.642;2023-04-16T06:15:31;0.50;;;0.50;;
11086;SDS011;5597;47.588;9.642;2023-04-16T06:17:57;0.60;;;0.60;;
11086;SDS011;5597;47.588;9.642;2023-04-16T06:20:22;0.83;;;0.67;;
11086;SDS011;5597;47.588;9.642;2023-04-16T06:22:48;0.67;;;0.67;;
11086;SDS011;5597;47.588;9.642;2023-04-16T06:25:14;0.70;;;0.70;;
11086;SDS011;5597;47.588;9.642;2023-04-16T06:27:39;1.10;;;1.00;;
11086;SDS011;5597;47.588;9.642;2023-04-16T06:30:09;0.80;;;0.77;;
11086;SDS011;5597;47.588;9.642;2023-04-16T06:32:37;0.70;;;0.70;;
11086;SDS011;5597;47.588;9.642;2023-04-16T06:35:02;0.80;;;0.80;;
11086;SDS011;5597;47.588;9.642;2023-04-16T06:37:28;0.80;;;0.80;;
11086;SDS011;5597;47.588;9.642;2023-04-16T06:39:54;0.97;;;0.90;;
11086;SDS011;5597;47.588;9.642;2023-04-16T06:42:19;4.07;;;2.83;;
11086;SDS011;5597;47.588;9.642;2023-04-16T06:44:45;5.37;;;4.80;;
11086;SDS011;5597;47.588;9.642;2023-04-16T06:47:11;8.73;;;6.27;;
11086;SDS011;5597;47.588;9.642;2023-04-16T06:49:37;13.43;;;5.20;;
11086;SDS011;5597;47.588;9.642;2023-04-16T06:52:03;6.47;;;3.10;;
11086;SDS011;5597;47.588;9.642;2023-04-16T06:54:29;2.70;;;2.40;;
11086;SDS011;5597;47.588;9.642;2023-04-16T06:56:55;1.30;;;1.20;;
11086;SDS011;5597;47.588;9.642;2023-04-16T06:59:21;1.00;;;0.90;;
11086;SDS011;5597;47.588;9.642;2023-04-16T07:01:46;1.07;;;0.90;;
11086;SDS011;5597;47.588;9.642;2023-04-16T07:04:12;0.90;;;0.90;;
11086;SDS011;5597;47.588;9.642;2023-04-16T07:06:37;0.93;;;0.77;;
11086;SDS011;5597;47.588;9.642;2023-04-16T07:09:03;0.90;;;0.70;;
11086;SDS011;5597;47.588;9.642;2023-04-16T07:11:29;0.60;;;0.60;;
11086;SDS011;5597;47.588;9.642;2023-04-16T07:13:54;1.17;;;0.70;;
11086;SDS011;5597;47.588;9.642;2023-04-16T07:16:21;0.70;;;0.70;;
11086;SDS011;5597;47.588;9.642;2023-04-16T07:18:47;0.70;;;0.70;;
11086;SDS011;5597;47.588;9.642;2023-04-16T07:21:13;0.80;;;0.73;;
11086;SDS011;5597;47.588;9.642;2023-04-16T07:23:38;1.70;;;0.80;;
11086;SDS011;5597;47.588;9.642;2023-04-16T07:26:04;0.87;;;0.77;;
11086;SDS011;5597;47.588;9.642;2023-04-16T07:28:30;0.60;;;0.60;;
11086;SDS011;5597;47.588;9.642;2023-04-16T07:30:55;0.83;;;0.60;;
11086;SDS011;5597;47.588;9.642;2023-04-16T07:33:21;0.90;;;0.70;;
11086;SDS011;5597;47.588;9.642;2023-04-16T07:35:46;0.70;;;0.70;;
11086;SDS011;5597;47.588;9.642;2023-04-16T07:38:12;0.70;;;0.70;;
11086;SDS011;5597;47.588;9.642;2023-04-16T07:40:38;0.70;;;0.70;;
11086;SDS011;5597;47.588;9.642;2023-04-16T07:43:04;0.70;;;0.70;;
11086;SDS011;5597;47.588;9.642;2023-04-16T07:45:30;0.70;;;0.60;;
11086;SDS011;5597;47.588;9.642;2023-04-16T07:47:56;0.67;;;0.67;;
11086;SDS011;5597;47.588;9.642;2023-04-16T07:50:21;0.60;;;0.60;;
11086;SDS011;5597;47.588;9.642;2023-04-16T07:52:47;1.00;;;0.70;;
11086;SDS011;5597;47.588;9.642;2023-04-16T07:55:12;0.70;;;0.63;;
11086;SDS011;5597;47.588;9.642;2023-04-16T07:57:39;0.50;;;0.50;;
11086;SDS011;5597;47.588;9.642;2023-04-16T08:00:05;0.50;;;0.50;;
11086;SDS011;5597;47.588;9.642;2023-04-16T08:02:31;0.70;;;0.70;;
11086;SDS011;5597;47.588;9.642;2023-04-16T08:04:57;0.80;;;0.80;;
11086;SDS011;5597;47.588;9.642;2023-04-16T08:07:23;0.80;;;0.80;;
11086;SDS011;5597;47.588;9.642;2023-04-16T08:09:52;0.93;;;0.80;;
11086;SDS011;5597;47.588;9.642;2023-04-16T08:12:18;0.70;;;0.67;;
11086;SDS011;5597;47.588;9.642;2023-04-16T08:14:45;0.87;;;0.80;;
11086;SDS011;5597;47.588;9.642;2023-04-16T08:17:11;1.47;;;1.20;;
11086;SDS011;5597;47.588;9.642;2023-04-16T08:19:38;0.90;;;0.90;;
11086;SDS011;5597;47.588;9.642;2023-04-16T08:22:03;0.70;;;0.70;;
11086;SDS011;5597;47.588;9.642;2023-04-16T08:24:29;1.03;;;0.87;;
11086;SDS011;5597;47.588;9.642;2023-04-16T08:26:55;1.37;;;1.00;;
11086;SDS011;5597;47.588;9.642;2023-04-16T08:29:20;0.90;;;0.90;;
11086;SDS011;5597;47.588;9.642;2023-04-16T08:31:48;1.00;;;0.83;;
11086;SDS011;5597;47.588;9.642;2023-04-16T08:34:14;1.10;;;1.00;;
11086;SDS011;5597;47.588;9.642;2023-04-16T08:36:40;2.00;;;1.63;;
11086;SDS011;5597;47.588;9.642;2023-04-16T08:39:06;1.60;;;1.50;;
11086;SDS011;5597;47.588;9.642;2023-04-16T08:41:32;1.30;;;1.20;;
11086;SDS011;5597;47.588;9.642;2023-04-16T08:44:02;1.07;;;0.93;;
11086;SDS011;5597;47.588;9.642;2023-04-16T08:46:37;1.20;;;1.00;;
11086;SDS011;5597;47.588;9.642;2023-04-16T08:49:05;1.87;;;1.30;;
11086;SDS011;5597;47.588;9.642;2023-04-16T08:51:34;1.87;;;1.57;;
11086;SDS011;5597;47.588;9.642;2023-04-16T08:54:04;2.60;;;1.77;;
11086;SDS011;5597;47.588;9.642;2023-04-16T08:56:34;2.93;;;2.13;;
11086;SDS011;5597;47.588;9.642;2023-04-16T08:59:01;2.77;;;1.70;;
11086;SDS011;5597;47.588;9.642;2023-04-16T09:01:29;1.50;;;1.40;;
11086;SDS011;5597;47.588;9.642;2023-04-16T09:03:57;2.70;;;1.90;;
11086;SDS011;5597;47.588;9.642;2023-04-16T09:06:25;2.83;;;2.17;;
11086;SDS011;5597;47.588;9.642;2023-04-16T09:08:52;2.17;;;1.87;;
11086;SDS011;5597;47.588;9.642;2023-04-16T09:11:19;2.13;;;1.90;;
11086;SDS011;5597;47.588;9.642;2023-04-16T09:13:45;2.67;;;2.17;;
11086;SDS011;5597;47.588;9.642;2023-04-16T09:16:11;3.50;;;1.90;;
11086;SDS011;5597;47.588;9.642;2023-04-16T09:18:38;1.70;;;1.60;;
11086;SDS011;5597;47.588;9.642;2023-04-16T09:21:04;1.27;;;1.10;;
11086;SDS011;5597;47.588;9.642;2023-04-16T09:23:31;2.77;;;2.23;;
11086;SDS011;5597;47.588;9.642;2023-04-16T09:25:57;1.50;;;1.40;;
11086;SDS011;5597;47.588;9.642;2023-04-16T09:28:39;1.00;;;0.90;;
11086;SDS011;5597;47.588;9.642;2023-04-16T09:31:07;1.87;;;1.57;;
11086;SDS011;5597;47.588;9.642;2023-04-16T09:33:33;1.60;;;1.50;;
11086;SDS011;5597;47.588;9.642;2023-04-16T09:35:58;1.10;;;0.90;;
11086;SDS011;5597;47.588;9.642;2023-04-16T09:38:24;1.10;;;0.97;;
11086;SDS011;5597;47.588;9.642;2023-04-16T09:41:04;1.47;;;1.37;;
11086;SDS011;5597;47.588;9.642;2023-04-16T09:43:31;4.77;;;3.47;;
11086;SDS011;5597;47.588;9.642;2023-04-16T09:45:56;5.13;;;3.33;;
11086;SDS011;5597;47.588;9.642;2023-04-16T09:50:54;5.33;;;4.40;;
11086;SDS011;5597;47.588;9.642;2023-04-16T09:53:24;4.27;;;3.30;;
11086;SDS011;5597;47.588;9.642;2023-04-16T09:55:51;2.70;;;1.70;;
11086;SDS011;5597;47.588;9.642;2023-04-16T09:58:19;1.87;;;1.70;;
11086;SDS011;5597;47.588;9.642;2023-04-16T10:00:46;1.77;;;1.40;;
11086;SDS011;5597;47.588;9.642;2023-04-16T10:03:12;1.37;;;1.20;;
11086;SDS011;5597;47.588;9.642;2023-04-16T10:05:37;1.40;;;1.30;;
11086;SDS011;5597;47.588;9.642;2023-04-16T10:08:09;1.30;;;1.20;;
11086;SDS011;5597;47.588;9.642;2023-04-16T10:10:36;1.27;;;1.00;;
11086;SDS011;5597;47.588;9.642;2023-04-16T10:13:02;1.30;;;1.20;;
11086;SDS011;5597;47.588;9.642;2023-04-16T10:15:28;1.50;;;1.40;;
11086;SDS011;5597;47.588;9.642;2023-04-16T10:17:54;1.43;;;1.23;;
11086;SDS011;5597;47.588;9.642;2023-04-16T10:20:21;2.33;;;1.10;;
11086;SDS011;5597;47.588;9.642;2023-04-16T10:22:48;1.33;;;1.20;;
11086;SDS011;5597;47.588;9.642;2023-04-16T10:25:14;1.20;;;1.10;;
11086;SDS011;5597;47.588;9.642;2023-04-16T10:27:40;1.13;;;1.03;;
11086;SDS011;5597;47.588;9.642;2023-04-16T10:30:07;1.10;;;1.00;;
11086;SDS011;5597;47.588;9.642;2023-04-16T10:32:34;1.57;;;1.20;;
11086;SDS011;5597;47.588;9.642;2023-04-16T10:35:02;1.30;;;1.10;;
11086;SDS011;5597;47.588;9.642;2023-04-16T10:37:29;1.40;;;1.10;;
11086;SDS011;5597;47.588;9.642;2023-04-16T10:39:56;2.17;;;1.20;;
11086;SDS011;5597;47.588;9.642;2023-04-16T10:42:23;1.13;;;1.03;;
11086;SDS011;5597;47.588;9.642;2023-04-16T10:44:50;1.17;;;1.07;;
11086;SDS011;5597;47.588;9.642;2023-04-16T10:47:15;1.40;;;1.30;;
11086;SDS011;5597;47.588;9.642;2023-04-16T10:49:41;1.30;;;1.20;;
11086;SDS011;5597;47.588;9.642;2023-04-16T10:52:14;1.30;;;1.20;;
11086;SDS011;5597;47.588;9.642;2023-04-16T10:54:43;1.20;;;1.10;;
11086;SDS011;5597;47.588;9.642;2023-04-16T10:57:14;1.30;;;1.20;;
11086;SDS011;5597;47.588;9.642;2023-04-16T10:59:42;1.20;;;1.10;;
11086;SDS011;5597;47.588;9.642;2023-04-16T11:02:12;1.20;;;1.10;;
11086;SDS011;5597;47.588;9.642;2023-04-16T11:04:38;1.37;;;1.27;;
11086;SDS011;5597;47.588;9.642;2023-04-16T11:09:54;1.20;;;1.10;;
11086;SDS011;5597;47.588;9.642;2023-04-16T11:12:32;1.40;;;1.30;;
11086;SDS011;5597;47.588;9.642;2023-04-16T11:15:00;1.33;;;1.23;;
11086;SDS011;5597;47.588;9.642;2023-04-16T11:17:40;1.50;;;1.37;;
11086;SDS011;5597;47.588;9.642;2023-04-16T11:20:06;1.63;;;1.27;;
11086;SDS011;5597;47.588;9.642;2023-04-16T11:22:36;1.13;;;1.03;;
11086;SDS011;5597;47.588;9.642;2023-04-16T11:25:02;1.33;;;1.20;;
11086;SDS011;5597;47.588;9.642;2023-04-16T11:27:29;1.20;;;1.10;;
11086;SDS011;5597;47.588;9.642;2023-04-16T11:30:04;1.20;;;1.10;;
11086;SDS011;5597;47.588;9.642;2023-04-16T11:32:34;1.50;;;1.10;;
11086;SDS011;5597;47.588;9.642;2023-04-16T11:35:01;1.37;;;1.20;;
11086;SDS011;5597;47.588;9.642;2023-04-16T11:39:58;1.93;;;1.40;;
11086;SDS011;5597;47.588;9.642;2023-04-16T11:42:25;1.93;;;1.50;;
11086;SDS011;5597;47.588;9.642;2023-04-16T11:44:55;1.40;;;1.30;;
11086;SDS011;5597;47.588;9.642;2023-04-16T11:47:22;1.93;;;1.53;;
11086;SDS011;5597;47.588;9.642;2023-04-16T11:49:48;1.60;;;1.50;;
11086;SDS011;5597;47.588;9.642;2023-04-16T11:52:30;2.37;;;1.40;;
11086;SDS011;5597;47.588;9.642;2023-04-16T11:54:57;1.60;;;1.40;;
11086;SDS011;5597;47.588;9.642;2023-04-16T11:57:24;1.60;;;1.50;;
11086;SDS011;5597;47.588;9.642;2023-04-16T11:59:50;1.60;;;1.40;;
11086;SDS011;5597;47.588;9.642;2023-04-16T12:02:16;1.33;;;1.23;;
11086;SDS011;5597;47.588;9.642;2023-04-16T12:04:42;1.40;;;1.30;;
11086;SDS011;5597;47.588;9.642;2023-04-16T12:07:11;1.57;;;1.47;;
11086;SDS011;5597;47.588;9.642;2023-04-16T12:09:38;1.83;;;1.30;;
11086;SDS011;5597;47.588;9.642;2023-04-16T12:12:05;1.70;;;1.60;;
11086;SDS011;5597;47.588;9.642;2023-04-16T12:14:49;1.80;;;1.60;;
11086;SDS011;5597;47.588;9.642;2023-04-16T12:17:15;1.90;;;1.70;;
11086;SDS011;5597;47.588;9.642;2023-04-16T12:22:30;2.20;;;2.00;;
11086;SDS011;5597;47.588;9.642;2023-04-16T12:24:58;2.17;;;1.97;;
11086;SDS011;5597;47.588;9.642;2023-04-16T12:27:39;2.00;;;1.80;;
11086;SDS011;5597;47.588;9.642;2023-04-16T12:30:05;1.83;;;1.60;;
11086;SDS011;5597;47.588;9.642;2023-04-16T12:32:32;2.63;;;1.80;;
11086;SDS011;5597;47.588;9.642;2023-04-16T12:34:58;2.07;;;1.97;;
11086;SDS011;5597;47.588;9.642;2023-04-16T12:37:23;1.90;;;1.80;;
11086;SDS011;5597;47.588;9.642;2023-04-16T12:39:49;2.03;;;1.70;;
11086;SDS011;5597;47.588;9.642;2023-04-16T12:42:14;1.80;;;1.70;;
11086;SDS011;5597;47.588;9.642;2023-04-16T12:44:40;1.80;;;1.70;;
11086;SDS011;5597;47.588;9.642;2023-04-16T12:47:06;1.70;;;1.60;;
11086;SDS011;5597;47.588;9.642;2023-04-16T12:49:31;2.03;;;1.70;;
11086;SDS011;5597;47.588;9.642;2023-04-16T12:51:57;1.47;;;1.37;;
11086;SDS011;5597;47.588;9.642;2023-04-16T12:54:22;1.40;;;1.30;;
11086;SDS011;5597;47.588;9.642;2023-04-16T12:56:52;1.83;;;1.37;;
11086;SDS011;5597;47.588;9.642;2023-04-16T12:59:18;2.93;;;2.40;;
11086;SDS011;5597;47.588;9.642;2023-04-16T13:01:43;2.70;;;1.90;;
11086;SDS011;5597;47.588;9.642;2023-04-16T13:04:09;1.50;;;1.30;;
11086;SDS011;5597;47.588;9.642;2023-04-16T13:06:35;1.37;;;1.27;;
11086;SDS011;5597;47.588;9.642;2023-04-16T13:09:01;1.20;;;1.10;;
11086;SDS011;5597;47.588;9.642;2023-04-16T13:11:28;1.53;;;1.30;;
11086;SDS011;5597;47.588;9.642;2023-04-16T13:13:54;1.13;;;1.03;;
11086;SDS011;5597;47.588;9.642;2023-04-16T13:16:20;1.40;;;1.10;;
11086;SDS011;5597;47.588;9.642;2023-04-16T13:18:45;1.50;;;1.23;;
11086;SDS011;5597;47.588;9.642;2023-04-16T13:21:11;2.70;;;1.40;;
11086;SDS011;5597;47.588;9.642;2023-04-16T13:23:37;1.37;;;1.20;;
11086;SDS011;5597;47.588;9.642;2023-04-16T13:26:02;1.60;;;1.30;;
11086;SDS011;5597;47.588;9.642;2023-04-16T13:28:28;1.57;;;1.30;;
11086;SDS011;5597;47.588;9.642;2023-04-16T13:30:53;1.63;;;1.50;;
11086;SDS011;5597;47.588;9.642;2023-04-16T13:33:19;2.57;;;2.30;;
11086;SDS011;5597;47.588;9.642;2023-04-16T13:35:45;3.27;;;2.97;;
11086;SDS011;5597;47.588;9.642;2023-04-16T13:38:12;3.70;;;2.90;;
11086;SDS011;5597;47.588;9.642;2023-04-16T13:40:38;2.97;;;2.60;;
11086;SDS011;5597;47.588;9.642;2023-04-16T13:43:03;2.20;;;2.00;;
11086;SDS011;5597;47.588;9.642;2023-04-16T13:45:30;5.53;;;4.50;;
11086;SDS011;5597;47.588;9.642;2023-04-16T13:47:55;4.20;;;3.30;;
11086;SDS011;5597;47.588;9.642;2023-04-16T13:50:21;2.50;;;2.00;;
11086;SDS011;5597;47.588;9.642;2023-04-16T13:52:47;1.73;;;1.50;;
11086;SDS011;5597;47.588;9.642;2023-04-16T13:55:12;1.53;;;1.10;;
11086;SDS011;5597;47.588;9.642;2023-04-16T13:57:41;1.30;;;1.20;;
11086;SDS011;5597;47.588;9.642;2023-04-16T14:00:07;3.00;;;1.60;;
11086;SDS011;5597;47.588;9.642;2023-04-16T14:02:33;2.67;;;1.53;;
11086;SDS011;5597;47.588;9.642;2023-04-16T14:04:59;2.10;;;1.90;;
11086;SDS011;5597;47.588;9.642;2023-04-16T14:07:25;1.63;;;1.53;;
11086;SDS011;5597;47.588;9.642;2023-04-16T14:09:52;2.10;;;1.57;;
11086;SDS011;5597;47.588;9.642;2023-04-16T14:12:17;1.40;;;1.30;;
11086;SDS011;5597;47.588;9.642;2023-04-16T14:14:43;1.93;;;1.10;;
11086;SDS011;5597;47.588;9.642;2023-04-16T14:17:08;1.20;;;1.03;;
11086;SDS011;5597;47.588;9.642;2023-04-16T14:19:34;1.20;;;1.10;;
11086;SDS011;5597;47.588;9.642;2023-04-16T14:22:00;1.30;;;1.20;;
11086;SDS011;5597;47.588;9.642;2023-04-16T14:24:25;1.00;;;0.90;;
11086;SDS011;5597;47.588;9.642;2023-04-16T14:26:51;0.77;;;0.77;;
11086;SDS011;5597;47.588;9.642;2023-04-16T14:29:16;0.70;;;0.70;;
11086;SDS011;5597;47.588;9.642;2023-04-16T14:31:42;0.70;;;0.70;;
11086;SDS011;5597;47.588;9.642;2023-04-16T14:34:08;1.00;;;0.77;;
11086;SDS011;5597;47.588;9.642;2023-04-16T14:36:34;0.77;;;0.70;;
11086;SDS011;5597;47.588;9.642;2023-04-16T14:39:00;0.80;;;0.67;;
11086;SDS011;5597;47.588;9.642;2023-04-16T14:41:26;1.00;;;0.80;;
11086;SDS011;5597;47.588;9.642;2023-04-16T14:43:51;0.77;;;0.77;;
11086;SDS011;5597;47.588;9.642;2023-04-16T14:46:17;1.13;;;0.80;;
11086;SDS011;5597;47.588;9.642;2023-04-16T14:48:43;0.93;;;0.60;;
11086;SDS011;5597;47.588;9.642;2023-04-16T14:51:09;0.60;;;0.60;;
11086;SDS011;5597;47.588;9.642;2023-04-16T14:53:38;0.70;;;0.70;;
11086;SDS011;5597;47.588;9.642;2023-04-16T14:56:04;0.80;;;0.70;;
11086;SDS011;5597;47.588;9.642;2023-04-16T14:58:29;0.70;;;0.70;;
11086;SDS011;5597;47.588;9.642;2023-04-16T15:00:56;1.10;;;0.90;;
11086;SDS011;5597;47.588;9.642;2023-04-16T15:03:22;0.80;;;0.80;;
11086;SDS011;5597;47.588;9.642;2023-04-16T15:05:48;0.90;;;0.90;;